Hauptseite
METAR-TAF:

METAR-TAF

Flughäfen :

Exeter, England

Exeter International Airport

Breite: 50-44N, Länge: 003-25W, Höhe: 30 m

Beobachtung

Neuester Wetterbericht von vor 35 Minuten, um 05:20 UTC
Wind 5 kt aus Süd/Südwest
Temperatur 6°C
Luftfeuchtigkeit 87%
Luftdruck 1017 hPa
Sichtweite 10 km oder mehr
Leicht bewölkt in der Höhe von 4500 ft

METAR: EGTE 260520Z 21005KT 9999 FEW045 06/04 Q1017

Zeit: 06:55 (05:55 UTC)

Prognose

Neuester Wetterbericht von vor 27 Minuten, um 05:28 UTC
Gültige Prognose vom 26 um 06 UTC bis 26 um 15 UTC
Wind 9 kt aus West/Südwest
Sichtweite 10 km oder mehr
Leicht bewölkt in der Höhe von 4500 ft
Wahrscheinlichkeit 30% :
Zeitweise
vom 26 um 06 UTC bis 26 um 15 UTC
Wind 15 kt aus West, Böen bis zu 26 kt
Sichtweite: 7000 m
Regenschauer

TAF: EGTE 260528Z 2606/2615 24009KT 9999 FEW045 PROB30 TEMPO 2606/2615 26015G26KT 7000 SHRA

Wetterbeobachtungen und Prognosen von mehr als 4000 Flughäfen (METAR und TAF Bericht).

Die verfügbaren Stationen werden durch gelbe und rote Markierungen auf der Karte dargestellt.

Führen Sie die Maus auf sie, um den Namen der Station zu sehen.

Darauf klicken, um die Beobachtung von Wetterbeobachtungen und Prognosen zu sehen.

Um die Karte zu ändern : klicken Sie auf den grünen Tasten mit einem schwarzen Kreuz Zum Vergrößern, auf den grünen Button mit einem Gedankenstrich zu verkleinern, oder auf die grünen Pfeile für benachbarte Karten.


METAR-TAF: